Historique des mesures à Cassis (13260), France
Quotidien Résumé Janvier 29, 2018 Unités:  US    Métrique   Métrique/US
« Précédent (Jour)
Suivant (Jour) »
Quotidien Hebdomadaire Mensuel Annuel Période au choix
  Maximum: Minimum: Moyenne:
Température: 32 °F 46 °F 49.3 °F
Point de rosée: 32 °F 41.7 °F 43.5 °F
Humidité: Humidity % 72 % 77 %
Vitesse du vent: WindSpeedKMH mph 0.0 mph 1.3 mph
Rafales: WindSpeedGustKMH mph - -
Vent:- - WSW
Pression: 0 in 30.3 in -
Précipitations: 0 in    
Historical Graphs
 
 
Mesures pour : Janvier 29, 2018
Heure Temperature Point de rosée Pression Vent Vitesse du vent Rafales Humidité Pluie (par heure) Conditions
32 °F 32 °F 0 in Calm     Humidity % 0 in SoftwareType W/m2
00:12 48 °F 42.6 °F 30.4 in Calm     82 % 0 in open2300-1.11 W/m2
01:12 48.4 °F 43.2 °F 30.4 in Calm   1.4 mph 82 % 0 in open2300-1.11 W/m2
02:12 47.5 °F 42.4 °F 30.4 in Calm     83 % 0 in open2300-1.11 W/m2
03:12 48 °F 42.6 °F 30.4 in Calm   1.1 mph 82 % 0 in open2300-1.11 W/m2
04:12 46.9 °F 42.1 °F 30.4 in NNW 2.1 mph 2.1 mph 83 % 0 in open2300-1.11 W/m2
05:12 46.8 °F 42.4 °F 30.4 in WNW 3.2 mph 5.8 mph 85 % 0 in open2300-1.11 W/m2
06:12 46.6 °F 42.6 °F 30.4 in NW 3.2 mph 3.2 mph 86 % 0 in open2300-1.11 W/m2
07:12 46.2 °F 42.1 °F 30.4 in Calm   4.0 mph 85 % 0 in open2300-1.11 W/m2
08:12 46 °F 41.7 °F 30.4 in WNW 5.0 mph 5.0 mph 85 % 0 in open2300-1.11 W/m2
09:12 47.5 °F 43 °F 30.4 in WNW 3.5 mph 6.1 mph 84 % 0 in open2300-1.11 W/m2
10:12 49.1 °F 43.5 °F 30.4 in Calm   1.8 mph 81 % 0 in open2300-1.11 W/m2
11:12 52.3 °F 46 °F 30.4 in Calm   3.5 mph 79 % 0 in open2300-1.11 W/m2
12:12 55 °F 47.1 °F 30.4 in Calm   2.6 mph 75 % 0 in open2300-1.11 W/m2
13:12 56.1 °F 47.5 °F 30.4 in Calm   3.2 mph 73 % 0 in open2300-1.11 W/m2
14:12 56.5 °F 47.5 °F 30.4 in South 3.5 mph 4.3 mph 72 % 0 in open2300-1.11 W/m2
15:12 56.1 °F 47.1 °F 30.4 in Calm   2.6 mph 72 % 0 in open2300-1.11 W/m2
16:12 55.2 °F 46.8 °F 30.4 in SSW 7.6 mph 7.6 mph 73 % 0 in open2300-1.11 W/m2
17:12 54.3 °F 46.6 °F 30.3 in Calm     75 % 0 in open2300-1.11 W/m2
18:12 51.4 °F 44.4 °F 30.3 in Calm   3.2 mph 77 % 0 in open2300-1.11 W/m2
19:12 49.6 °F 43.7 °F 30.3 in Calm   3.2 mph 80 % 0 in open2300-1.11 W/m2
20:12 48.9 °F 43.3 °F 30.4 in North 1.8 mph 1.8 mph 81 % 0 in open2300-1.11 W/m2
21:12 47.5 °F 42.3 °F 30.3 in NNW 2.1 mph 2.1 mph 82 % 0 in open2300-1.11 W/m2
22:12 47.8 °F 43 °F 30.3 in Calm     83 % 0 in open2300-1.11 W/m2
23:12 47.5 °F 43 °F 30.3 in Calm     84 % 0 in open2300-1.11 W/m2
Observations météo à CASSIS
WU-History script by Weather Underground - 1 mb